Time;durP1;ratioP1;P1;durP2;ratioP2;P2;SDS_P1;SDS_P2;PMS_P1;PMS_P2;Temp;Humidity;BMP_temperature;BMP_pressure;BME280_temperature;BME280_humidity;BME280_pressure;Samples;Min_cycle;Max_cycle;Signal;HPM_P1;HPM_P2
2021/05/02 00:00:11;;;;;;;2.80;1.58;;;13.80;61.70;;;;;;6111494;29;20048;-81
2021/05/02 00:03:12;;;;;;;1.50;1.10;;;13.90;61.70;;;;;;6115920;29;20032;-81
2021/05/02 00:06:13;;;;;;;3.60;1.58;;;13.80;61.60;;;;;;6115431;29;20138;-81
2021/05/02 00:09:14;;;;;;;2.45;1.15;;;13.80;61.60;;;;;;6115588;29;20031;-81
2021/05/02 00:12:17;;;;;;;2.95;1.30;;;13.80;61.70;;;;;;6116163;29;20060;-82
2021/05/02 00:15:22;;;;;;;1.15;1.05;;;13.70;61.90;;;;;;6132389;29;20473;-81
2021/05/02 00:18:25;;;;;;;1.40;1.10;;;13.70;62.30;;;;;;6130869;29;20375;-81
2021/05/02 00:21:26;;;;;;;3.85;1.58;;;13.60;62.50;;;;;;6132080;29;20462;-80
2021/05/02 00:24:27;;;;;;;2.67;1.65;;;13.60;62.70;;;;;;6131909;29;20046;-82
2021/05/02 00:27:29;;;;;;;2.10;1.45;;;13.60;63.00;;;;;;6131171;29;20107;-80
2021/05/02 00:30:30;;;;;;;1.80;1.50;;;13.50;63.10;;;;;;6131247;29;20039;-81
2021/05/02 00:33:32;;;;;;;2.65;1.90;;;13.60;63.20;;;;;;6114094;29;20411;-80
2021/05/02 00:36:33;;;;;;;1.75;1.52;;;13.60;63.10;;;;;;6130968;29;20032;-81
2021/05/02 00:39:35;;;;;;;3.08;1.98;;;13.60;62.90;;;;;;6115492;29;20028;-80
2021/05/02 00:42:41;;;;;;;1.95;1.40;;;13.70;62.50;;;;;;6115344;29;20432;-81
2021/05/02 00:46:00;;;;;;;2.00;1.42;;;13.70;62.30;;;;;;6131752;29;20095;-81
2021/05/02 00:49:31;;;;;;;1.90;1.40;;;13.80;62.20;;;;;;6131442;29;20031;-81
2021/05/02 00:53:02;;;;;;;3.47;1.63;;;13.80;61.80;;;;;;6098896;29;20028;-80
2021/05/02 00:56:30;;;;;;;1.98;1.50;;;13.80;61.70;;;;;;6101218;29;20027;-81
2021/05/02 01:00:05;;;;;;;2.40;1.52;;;13.90;61.50;;;;;;6114468;29;20035;-81
2021/05/02 01:03:07;;;;;;;5.60;2.17;;;13.90;61.40;;;;;;6058984;29;20045;-81
2021/05/02 01:06:10;;;;;;;9.05;2.20;;;14.00;61.60;;;;;;6028144;29;20078;-81
2021/05/02 01:09:16;;;;;;;3.45;1.55;;;14.00;62.00;;;;;;6039973;29;20029;-82
2021/05/02 01:12:20;;;;;;;2.60;1.40;;;14.00;62.50;;;;;;6058716;29;20041;-80
2021/05/02 01:15:27;;;;;;;2.35;1.80;;;14.00;62.70;;;;;;6022041;29;20046;-80
2021/05/02 01:18:28;;;;;;;3.47;1.90;;;14.00;63.00;;;;;;6041623;29;20137;-80
2021/05/02 01:21:32;;;;;;;5.13;2.00;;;14.00;63.10;;;;;;6058400;29;20465;-81
2021/05/02 01:24:34;;;;;;;2.72;1.67;;;14.10;63.30;;;;;;6057987;29;20041;-81
2021/05/02 01:27:35;;;;;;;4.30;1.85;;;14.10;63.40;;;;;;6043166;29;20040;-80
2021/05/02 01:30:38;;;;;;;5.28;2.30;;;14.00;63.70;;;;;;6043686;29;20036;-80
2021/05/02 01:33:40;;;;;;;3.85;2.17;;;14.00;63.90;;;;;;6042446;29;20044;-81
2021/05/02 01:36:41;;;;;;;3.13;1.85;;;14.00;64.10;;;;;;6042649;29;20037;-80
2021/05/02 01:39:42;;;;;;;5.75;2.33;;;14.00;64.30;;;;;;6110800;29;20046;-80
2021/05/02 01:42:46;;;;;;;3.47;1.70;;;14.00;64.30;;;;;;6091490;29;20039;-80
2021/05/02 01:45:48;;;;;;;4.05;1.73;;;14.00;64.30;;;;;;6098192;29;20032;-80
2021/05/02 01:48:50;;;;;;;4.95;2.10;;;14.10;64.10;;;;;;6114433;29;20047;-80
2021/05/02 01:51:51;;;;;;;2.47;1.88;;;14.10;63.90;;;;;;6131189;29;20028;-81
2021/05/02 01:54:54;;;;;;;3.20;1.75;;;14.10;63.50;;;;;;6113631;29;20031;-81
2021/05/02 01:57:55;;;;;;;4.40;2.00;;;14.10;63.40;;;;;;6113581;29;20107;-80
2021/05/02 02:01:03;;;;;;;3.13;1.45;;;14.10;63.10;;;;;;6113571;29;20047;-81
2021/05/02 02:04:08;;;;;;;2.05;1.63;;;14.10;62.90;;;;;;6101303;29;20067;-81
2021/05/02 02:07:13;;;;;;;2.10;1.77;;;14.10;62.70;;;;;;6113772;29;20058;-81
2021/05/02 02:10:20;;;;;;;1.90;1.50;;;14.20;62.80;;;;;;6136086;29;20060;-80
2021/05/02 02:13:21;;;;;;;2.35;1.65;;;14.10;62.80;;;;;;6132919;29;20032;-80
2021/05/02 02:16:24;;;;;;;1.98;1.40;;;14.10;63.20;;;;;;6124781;29;20032;-80
2021/05/02 02:19:25;;;;;;;2.00;1.45;;;14.10;63.60;;;;;;6112534;29;20062;-81
2021/05/02 02:22:27;;;;;;;4.60;1.55;;;14.10;63.90;;;;;;6113118;29;20043;-80
2021/05/02 02:25:34;;;;;;;2.53;1.58;;;14.00;64.10;;;;;;6133440;29;20546;-79
2021/05/02 02:28:38;;;;;;;2.40;1.65;;;14.00;64.30;;;;;;6127761;29;20027;-80
2021/05/02 02:31:43;;;;;;;3.50;2.00;;;14.00;64.20;;;;;;6123034;29;20047;-80
2021/05/02 02:34:48;;;;;;;1.77;1.38;;;14.00;64.00;;;;;;6136844;29;20375;-80
2021/05/02 02:37:54;;;;;;;2.72;1.50;;;14.00;63.80;;;;;;6113877;29;20028;-80
2021/05/02 02:40:57;;;;;;;2.85;1.55;;;14.00;63.50;;;;;;6106482;29;20024;-81
2021/05/02 02:43:59;;;;;;;2.17;1.55;;;14.00;63.30;;;;;;6128778;29;20035;-80
2021/05/02 02:47:01;;;;;;;2.97;1.95;;;13.90;63.10;;;;;;6112756;29;20082;-80
2021/05/02 02:50:08;;;;;;;2.55;1.70;;;14.00;63.00;;;;;;6112564;29;20550;-81
2021/05/02 02:53:13;;;;;;;3.35;1.48;;;14.10;62.80;;;;;;6113261;29;20378;-80
2021/05/02 02:56:18;;;;;;;2.83;1.73;;;14.10;62.80;;;;;;6114055;29;20031;-80
2021/05/02 02:59:25;;;;;;;4.45;1.48;;;14.10;62.80;;;;;;6117643;29;20495;-81
2021/05/02 03:02:29;;;;;;;2.80;1.93;;;14.10;62.80;;;;;;6133269;29;20051;-81
2021/05/02 03:05:33;;;;;;;4.55;2.20;;;14.10;63.40;;;;;;6117186;29;20043;-81
2021/05/02 03:08:38;;;;;;;6.05;2.60;;;14.00;61.70;;;;;;6116172;29;20479;-81
2021/05/02 03:11:40;;;;;;;7.00;2.25;;;14.00;61.50;;;;;;6134117;29;20028;-80
2021/05/02 03:14:41;;;;;;;5.18;3.17;;;14.00;61.40;;;;;;6117902;29;20090;-81
2021/05/02 03:17:47;;;;;;;4.30;3.03;;;14.10;60.70;;;;;;6132822;29;20039;-80
2021/05/02 03:20:55;;;;;;;9.52;3.25;;;14.10;60.40;;;;;;6119150;29;20390;-81
2021/05/02 03:23:58;;;;;;;9.95;3.60;;;14.10;60.00;;;;;;6117255;29;20039;-80
2021/05/02 03:27:26;;;;;;;10.13;2.90;;;14.10;59.80;;;;;;6133191;29;20049;-80
2021/05/02 03:30:27;;;;;;;5.57;2.85;;;14.10;59.60;;;;;;6116488;29;20043;-81
2021/05/02 03:33:34;;;;;;;3.47;2.28;;;14.10;59.50;;;;;;6115521;29;20074;-81
2021/05/02 03:36:51;;;;;;;6.18;2.70;;;14.10;59.50;;;;;;6110854;29;20467;-81
2021/05/02 03:39:52;;;;;;;4.78;2.42;;;14.00;59.20;;;;;;6122896;29;20114;-80
2021/05/02 03:42:54;;;;;;;6.15;3.35;;;14.00;59.20;;;;;;6132189;29;20496;-81
2021/05/02 03:45:55;;;;;;;4.88;2.75;;;13.90;59.10;;;;;;6116997;29;20059;-80
2021/05/02 03:49:02;;;;;;;5.57;3.25;;;13.90;59.10;;;;;;6136341;29;20096;-81
2021/05/02 03:52:04;;;;;;;9.63;3.50;;;13.90;59.10;;;;;;6136216;29;20039;-81
2021/05/02 03:55:06;;;;;;;5.90;3.30;;;13.90;59.10;;;;;;6131785;29;20106;-80
2021/05/02 03:58:11;;;;;;;7.55;3.85;;;13.90;58.90;;;;;;6115681;29;20036;-80
2021/05/02 04:01:12;;;;;;;6.00;3.60;;;13.80;58.70;;;;;;6132300;29;20169;-80
2021/05/02 04:04:14;;;;;;;6.85;3.22;;;13.80;58.70;;;;;;6115135;29;20073;-80
2021/05/02 04:07:16;;;;;;;4.95;2.45;;;13.70;58.70;;;;;;6115041;29;20028;-80
2021/05/02 04:14:19;;;;;;;2.88;1.92;;;13.60;59.40;;;;;;6133785;29;20036;-81
2021/05/02 04:17:20;;;;;;;2.65;2.13;;;13.60;59.70;;;;;;6135388;29;20039;-80
2021/05/02 04:20:22;;;;;;;3.00;1.83;;;13.50;60.30;;;;;;6124881;29;20355;-80
2021/05/02 04:23:24;;;;;;;3.83;2.30;;;13.50;61.40;;;;;;6144749;29;20040;-79
2021/05/02 04:26:25;;;;;;;3.40;2.35;;;13.40;61.70;;;;;;6132739;29;20031;-79
2021/05/02 04:29:28;;;;;;;3.72;2.38;;;13.40;62.00;;;;;;6116762;29;20090;-80
2021/05/02 04:32:29;;;;;;;5.57;3.33;;;13.40;62.30;;;;;;6115380;29;20031;-80
2021/05/02 04:35:30;;;;;;;6.18;3.42;;;13.50;62.30;;;;;;6131031;29;20027;-79
2021/05/02 04:38:31;;;;;;;4.90;3.33;;;13.30;61.80;;;;;;6131296;29;20070;-81
2021/05/02 04:41:32;;;;;;;7.03;3.50;;;13.30;61.50;;;;;;6132369;29;20035;-81
2021/05/02 04:44:34;;;;;;;5.68;3.20;;;13.30;61.10;;;;;;6131033;29;20035;-81
2021/05/02 04:47:35;;;;;;;6.68;3.65;;;13.20;60.90;;;;;;6131636;29;20023;-81
2021/05/02 04:50:36;;;;;;;6.57;3.60;;;13.20;60.90;;;;;;6130648;29;20043;-81
2021/05/02 04:53:37;;;;;;;4.07;2.72;;;13.20;60.90;;;;;;6114318;29;20181;-80
2021/05/02 04:56:39;;;;;;;6.63;3.53;;;13.20;60.80;;;;;;6131239;29;20110;-80
2021/05/02 04:59:40;;;;;;;9.00;4.28;;;13.20;60.70;;;;;;6130836;29;20110;-80
2021/05/02 05:02:43;;;;;;;6.82;4.13;;;13.20;60.30;;;;;;6114336;29;20506;-80
2021/05/02 05:05:45;;;;;;;7.15;4.15;;;13.20;60.30;;;;;;6114311;29;20057;-81
2021/05/02 05:08:46;;;;;;;5.63;4.15;;;13.20;60.00;;;;;;6130729;29;20158;-80
2021/05/02 05:11:47;;;;;;;8.18;4.20;;;13.10;59.90;;;;;;6114144;29;20065;-81
2021/05/02 05:14:49;;;;;;;9.15;4.38;;;13.20;60.00;;;;;;6114020;29;20032;-80
2021/05/02 05:17:50;;;;;;;8.18;4.20;;;13.20;59.90;;;;;;6130700;29;20378;-80
2021/05/02 05:20:53;;;;;;;8.90;4.00;;;13.20;59.80;;;;;;6134728;29;20055;-80
2021/05/02 05:23:54;;;;;;;6.28;3.28;;;13.20;59.80;;;;;;6121569;29;20036;-83
2021/05/02 05:26:55;;;;;;;5.72;3.28;;;13.20;59.70;;;;;;6121231;29;20035;-80
2021/05/02 05:29:58;;;;;;;12.05;3.65;;;13.20;59.70;;;;;;6118654;29;20067;-80
2021/05/02 05:33:07;;;;;;;5.68;3.65;;;13.20;59.60;;;;;;6131081;29;20031;-80
2021/05/02 05:36:08;;;;;;;5.75;3.53;;;13.20;59.70;;;;;;6113832;29;20043;-80
2021/05/02 05:39:57;;;;;;;9.48;4.07;;;13.20;59.60;;;;;;6129824;29;20063;-79
2021/05/02 05:43:03;;;;;;;4.93;3.63;;;13.30;59.70;;;;;;6135712;29;20133;-79
2021/05/02 05:46:04;;;;;;;6.75;3.15;;;13.30;59.60;;;;;;6130264;29;20040;-80
2021/05/02 05:49:05;;;;;;;9.68;4.10;;;13.30;59.70;;;;;;6113896;29;20036;-83
2021/05/02 05:52:08;;;;;;;6.30;4.20;;;13.30;59.80;;;;;;6113942;29;20059;-81
2021/05/02 05:55:11;;;;;;;10.43;5.05;;;13.40;59.80;;;;;;6113740;29;20027;-82
2021/05/02 05:58:12;;;;;;;10.85;5.25;;;13.40;59.50;;;;;;6113455;29;20024;-80
2021/05/02 06:01:13;;;;;;;7.90;4.68;;;13.40;59.10;;;;;;6129381;29;20048;-81
2021/05/02 06:04:15;;;;;;;7.93;5.03;;;13.40;58.90;;;;;;6115346;29;20051;-80
2021/05/02 06:07:16;;;;;;;8.73;4.93;;;13.40;58.60;;;;;;6114744;29;20028;-81
2021/05/02 06:10:18;;;;;;;7.28;4.70;;;13.50;58.50;;;;;;6113045;29;20035;-81
2021/05/02 06:13:20;;;;;;;8.98;5.45;;;13.50;58.30;;;;;;6113299;29;20043;-81
2021/05/02 06:16:21;;;;;;;10.98;5.22;;;13.50;58.10;;;;;;6113141;29;20038;-80
2021/05/02 06:19:55;;;;;;;13.30;4.97;;;13.60;58.10;;;;;;6117327;29;20046;-82
2021/05/02 06:22:57;;;;;;;9.48;4.93;;;13.60;58.20;;;;;;6058404;29;20128;-81
2021/05/02 06:26:14;;;;;;;8.88;4.88;;;13.70;58.10;;;;;;6047075;29;20084;-81
2021/05/02 06:29:16;;;;;;;7.72;4.80;;;13.70;57.90;;;;;;6024658;29;20537;-80
2021/05/02 06:32:18;;;;;;;9.88;5.78;;;13.80;57.70;;;;;;6043419;29;20049;-80
2021/05/02 06:35:19;;;;;;;9.00;5.18;;;14.00;57.60;;;;;;6046613;29;20037;-80
2021/05/02 06:38:21;;;;;;;10.00;5.68;;;14.00;57.40;;;;;;6047728;29;20064;-80
2021/05/02 06:41:23;;;;;;;9.73;5.18;;;14.00;57.20;;;;;;6045708;29;20033;-81
2021/05/02 06:44:25;;;;;;;13.35;6.07;;;14.10;57.00;;;;;;6062050;29;20476;-82
2021/05/02 06:47:26;;;;;;;10.65;5.18;;;14.20;56.60;;;;;;6042296;29;20041;-81
2021/05/02 06:50:27;;;;;;;12.93;5.97;;;14.20;56.20;;;;;;6046428;29;20044;-80
2021/05/02 06:53:28;;;;;;;10.75;5.50;;;14.30;55.90;;;;;;6046333;29;20613;-81
2021/05/02 06:56:29;;;;;;;9.15;5.60;;;14.40;55.80;;;;;;6046074;29;20037;-81
2021/05/02 06:59:31;;;;;;;11.30;6.13;;;14.30;55.60;;;;;;6128878;29;20511;-81
2021/05/02 07:02:32;;;;;;;9.82;5.78;;;14.40;55.60;;;;;;6117225;29;20032;-83
2021/05/02 07:05:34;;;;;;;12.88;6.32;;;14.40;55.50;;;;;;6110870;29;20050;-80
2021/05/02 07:08:35;;;;;;;15.60;6.28;;;14.50;55.60;;;;;;6101234;29;20064;-81
2021/05/02 07:11:38;;;;;;;15.55;6.40;;;14.60;55.40;;;;;;6101346;29;20059;-82
2021/05/02 07:14:39;;;;;;;10.40;5.55;;;14.60;55.40;;;;;;6117371;29;20047;-81
2021/05/02 07:17:41;;;;;;;11.30;6.38;;;14.60;55.40;;;;;;6101385;29;20345;-81
2021/05/02 07:20:42;;;;;;;11.23;6.63;;;14.70;55.20;;;;;;6116694;29;20585;-80
2021/05/02 07:23:49;;;;;;;14.25;6.88;;;14.70;55.20;;;;;;6117005;29;20035;-81
2021/05/02 07:26:53;;;;;;;10.88;6.25;;;14.80;55.10;;;;;;6126559;29;20459;-83
2021/05/02 07:29:54;;;;;;;8.90;5.60;;;14.90;54.90;;;;;;6132184;29;20585;-80
2021/05/02 07:32:55;;;;;;;13.35;6.85;;;15.00;54.70;;;;;;6116222;29;20474;-80
2021/05/02 07:35:57;;;;;;;9.63;5.53;;;15.10;54.40;;;;;;6131806;29;20031;-80
2021/05/02 07:38:58;;;;;;;13.23;6.25;;;15.20;54.20;;;;;;6116177;29;20028;-81
2021/05/02 07:41:59;;;;;;;8.38;5.55;;;15.30;54.10;;;;;;6131638;29;20095;-80
2021/05/02 07:45:01;;;;;;;11.05;6.82;;;15.30;54.10;;;;;;6116159;29;20110;-81
2021/05/02 07:48:05;;;;;;;11.60;6.25;;;15.40;54.10;;;;;;6132154;29;20032;-80
2021/05/02 07:51:06;;;;;;;12.30;5.97;;;15.40;54.00;;;;;;6133300;29;20087;-81
2021/05/02 07:54:08;;;;;;;11.77;6.20;;;15.40;53.90;;;;;;6132773;29;20352;-81
2021/05/02 07:57:09;;;;;;;13.10;6.10;;;15.40;53.80;;;;;;6115453;29;20384;-81
2021/05/02 08:00:11;;;;;;;11.90;5.95;;;15.30;53.90;;;;;;6099589;29;20118;-80
2021/05/02 08:03:12;;;;;;;11.32;6.25;;;15.30;53.90;;;;;;6115675;29;20127;-80
2021/05/02 08:06:13;;;;;;;14.60;6.43;;;15.20;54.00;;;;;;6115666;29;20038;-80
2021/05/02 08:09:14;;;;;;;13.23;6.78;;;15.10;54.20;;;;;;6131120;29;20043;-81
2021/05/02 08:12:17;;;;;;;12.88;6.03;;;15.20;54.30;;;;;;6131670;29;20031;-81
2021/05/02 08:15:18;;;;;;;8.93;5.95;;;15.20;54.20;;;;;;6132913;29;20075;-81
2021/05/02 08:18:20;;;;;;;17.67;6.68;;;15.20;54.20;;;;;;6114669;29;20529;-82
2021/05/02 08:21:23;;;;;;;10.93;5.85;;;15.30;54.20;;;;;;6099191;29;20040;-80
2021/05/02 08:24:24;;;;;;;12.20;6.35;;;15.30;54.20;;;;;;6132033;29;20123;-81
2021/05/02 08:27:27;;;;;;;12.55;6.28;;;15.60;53.90;;;;;;6115961;29;20038;-82
2021/05/02 08:30:28;;;;;;;11.77;7.13;;;15.80;53.40;;;;;;6115023;29;20571;-81
2021/05/02 08:33:29;;;;;;;12.10;6.72;;;16.10;53.30;;;;;;6097609;29;20072;-80
2021/05/02 08:36:31;;;;;;;12.43;5.95;;;16.20;52.10;;;;;;6115035;29;20032;-81
2021/05/02 08:39:35;;;;;;;13.68;7.35;;;16.50;51.80;;;;;;6130894;29;20032;-81
2021/05/02 08:42:36;;;;;;;14.02;7.85;;;16.80;51.20;;;;;;6114714;29;20042;-81
2021/05/02 08:45:38;;;;;;;10.73;6.57;;;17.00;50.50;;;;;;6131559;29;20110;-82
2021/05/02 08:48:39;;;;;;;10.35;5.57;;;17.10;50.40;;;;;;6131226;29;20027;-81
2021/05/02 08:51:41;;;;;;;11.55;5.88;;;17.10;50.00;;;;;;6116869;29;20048;-81
2021/05/02 08:54:42;;;;;;;10.82;6.22;;;17.00;50.10;;;;;;6116853;29;20063;-81
2021/05/02 08:57:43;;;;;;;14.65;6.85;;;17.00;49.80;;;;;;6132315;29;20050;-81
2021/05/02 09:00:46;;;;;;;12.05;7.15;;;16.90;49.70;;;;;;6095644;29;20095;-81
2021/05/02 09:03:47;;;;;;;12.57;6.75;;;16.90;49.60;;;;;;6083857;29;20116;-81
2021/05/02 09:06:49;;;;;;;11.30;6.40;;;17.00;49.50;;;;;;6083037;29;20037;-82
2021/05/02 09:09:50;;;;;;;11.57;6.82;;;17.10;49.20;;;;;;6100784;29;20040;-82
2021/05/02 09:13:02;;;;;;;10.10;6.63;;;17.20;49.10;;;;;;6085369;29;20091;-80
2021/05/02 09:16:06;;;;;;;10.63;6.13;;;17.40;48.80;;;;;;6101051;29;20028;-82
2021/05/02 09:19:08;;;;;;;10.95;6.53;;;17.60;47.90;;;;;;6084255;29;20029;-80
2021/05/02 09:22:15;;;;;;;14.80;5.95;;;17.60;47.70;;;;;;6085077;29;20028;-81
2021/05/02 09:25:16;;;;;;;16.02;6.65;;;17.50;47.60;;;;;;6082521;29;20051;-82
2021/05/02 09:28:38;;;;;;;12.95;6.28;;;17.40;47.70;;;;;;6083031;29;20036;-81
2021/05/02 09:31:42;;;;;;;10.52;6.20;;;17.30;48.30;;;;;;6083203;29;20107;-80
2021/05/02 09:34:52;;;;;;;10.48;6.13;;;17.10;48.80;;;;;;6097760;29;20036;-81
2021/05/02 09:38:12;;;;;;;13.13;6.85;;;16.90;49.00;;;;;;6082314;29;20032;-80
2021/05/02 09:41:16;;;;;;;9.68;6.53;;;16.70;49.50;;;;;;6097904;29;20033;-80
2021/05/02 09:44:38;;;;;;;10.80;6.45;;;16.50;49.80;;;;;;6081486;29;20040;-81
2021/05/02 09:47:42;;;;;;;10.32;6.35;;;16.30;49.90;;;;;;6082932;29;20036;-80
2021/05/02 09:50:48;;;;;;;10.43;5.32;;;16.20;50.10;;;;;;6083210;29;20033;-80
2021/05/02 09:54:20;;;;;;;12.40;6.25;;;16.10;50.10;;;;;;6082966;29;20412;-81
2021/05/02 09:57:25;;;;;;;11.57;6.38;;;16.00;50.20;;;;;;6045775;29;20090;-81
2021/05/02 10:00:34;;;;;;;9.93;6.05;;;16.00;50.10;;;;;;6090838;29;20134;-81
2021/05/02 10:03:44;;;;;;;12.43;6.50;;;16.10;50.10;;;;;;6097199;29;20075;-81
2021/05/02 10:06:45;;;;;;;15.10;7.10;;;16.20;50.10;;;;;;6106023;29;20040;-80
2021/05/02 10:09:47;;;;;;;11.43;6.95;;;16.30;49.90;;;;;;6106392;29;20036;-80
2021/05/02 10:12:52;;;;;;;14.95;6.13;;;16.50;49.10;;;;;;6102870;29;20037;-80
2021/05/02 10:15:53;;;;;;;14.10;6.43;;;16.70;48.20;;;;;;6087643;29;20033;-81
2021/05/02 10:18:55;;;;;;;9.45;5.35;;;17.00;47.70;;;;;;6087079;29;20040;-81
2021/05/02 10:21:57;;;;;;;11.35;6.72;;;17.10;47.40;;;;;;6103456;29;20079;-81
2021/05/02 10:24:59;;;;;;;10.80;6.25;;;17.00;47.40;;;;;;6110252;29;20043;-81
2021/05/02 10:28:00;;;;;;;12.48;6.60;;;17.00;47.50;;;;;;6109614;29;20039;-83
2021/05/02 10:31:04;;;;;;;11.93;6.57;;;16.90;47.40;;;;;;6094143;29;20079;-81
2021/05/02 10:34:29;;;;;;;10.13;5.82;;;17.00;47.80;;;;;;6109867;29;20032;-81
2021/05/02 10:37:36;;;;;;;8.68;4.32;;;17.10;47.30;;;;;;6089721;29;20405;-80
2021/05/02 10:40:39;;;;;;;8.93;5.25;;;17.20;46.00;;;;;;6086851;29;20040;-80
2021/05/02 10:43:40;;;;;;;6.47;3.95;;;17.10;46.40;;;;;;6086684;29;20124;-81
2021/05/02 10:46:44;;;;;;;6.65;4.20;;;16.80;47.20;;;;;;6068333;29;20041;-80
2021/05/02 10:49:53;;;;;;;6.50;4.18;;;16.60;48.60;;;;;;6087020;29;20077;-82
2021/05/02 10:53:04;;;;;;;10.02;4.90;;;16.30;50.20;;;;;;6087190;29;20033;-82
2021/05/02 10:56:08;;;;;;;6.70;3.90;;;15.90;51.30;;;;;;6086875;29;20063;-82
2021/05/02 10:59:12;;;;;;;7.72;4.25;;;15.60;52.00;;;;;;6086545;29;20441;-80
2021/05/02 11:02:33;;;;;;;10.48;4.03;;;15.40;52.50;;;;;;6134319;29;20079;-80
2021/05/02 11:05:47;;;;;;;9.20;4.13;;;15.30;52.80;;;;;;6117756;29;20028;-80
2021/05/02 11:08:56;;;;;;;7.38;3.47;;;15.20;52.90;;;;;;6117670;29;20471;-79
2021/05/02 11:11:58;;;;;;;6.68;4.22;;;15.30;52.70;;;;;;6117009;29;20031;-80
2021/05/02 11:15:00;;;;;;;7.20;3.78;;;15.40;52.50;;;;;;6117245;29;20087;-81
2021/05/02 11:18:01;;;;;;;9.20;4.75;;;15.50;52.30;;;;;;6133309;29;20359;-80
2021/05/02 11:21:04;;;;;;;8.70;4.32;;;15.60;52.00;;;;;;6118041;29;20042;-81
2021/05/02 11:24:05;;;;;;;7.05;3.90;;;15.70;52.00;;;;;;6117393;29;20027;-82
2021/05/02 11:27:21;;;;;;;8.35;4.13;;;15.90;51.70;;;;;;6117090;29;20027;-81
2021/05/02 11:30:25;;;;;;;5.45;3.47;;;16.00;51.00;;;;;;6133130;29;20031;-81
2021/05/02 11:33:26;;;;;;;5.97;3.50;;;16.00;50.20;;;;;;6116479;29;20027;-80
2021/05/02 11:36:38;;;;;;;4.68;3.63;;;16.00;49.80;;;;;;6131819;29;20032;-81
2021/05/02 11:39:44;;;;;;;6.18;3.75;;;16.00;49.00;;;;;;6133278;29;20028;-82
2021/05/02 11:43:11;;;;;;;7.07;3.95;;;16.00;48.60;;;;;;6116122;29;20032;-80
2021/05/02 11:46:21;;;;;;;8.30;4.22;;;16.00;48.80;;;;;;6131787;29;20455;-81
2021/05/02 11:49:23;;;;;;;7.68;4.80;;;16.10;48.70;;;;;;6115901;29;20466;-80
2021/05/02 11:52:24;;;;;;;7.53;4.70;;;16.50;48.60;;;;;;6132894;29;20039;-81
2021/05/02 11:55:40;;;;;;;5.65;3.85;;;17.20;47.90;;;;;;6116059;29;20051;-81
2021/05/02 11:58:43;;;;;;;11.15;5.00;;;17.90;46.40;;;;;;6116647;29;20066;-80
2021/05/02 12:01:48;;;;;;;6.57;4.18;;;18.90;45.10;;;;;;6116214;29;20052;-81
2021/05/02 12:04:50;;;;;;;6.50;3.97;;;19.80;43.20;;;;;;6083338;29;20062;-81
2021/05/02 12:08:09;;;;;;;5.72;3.58;;;20.00;41.50;;;;;;6116263;29;20071;-81
2021/05/02 12:11:12;;;;;;;6.97;4.05;;;19.70;40.80;;;;;;6108889;29;20040;-82
2021/05/02 12:14:22;;;;;;;6.35;4.45;;;19.40;40.90;;;;;;6114535;29;20043;-82
2021/05/02 12:17:23;;;;;;;8.68;4.28;;;19.10;41.30;;;;;;6131817;29;20032;-81
2021/05/02 12:20:26;;;;;;;11.75;4.93;;;19.10;41.40;;;;;;6132286;29;20451;-81
2021/05/02 12:23:27;;;;;;;7.38;4.80;;;19.00;41.90;;;;;;6115571;29;20035;-81
2021/05/02 12:26:29;;;;;;;6.25;4.50;;;19.00;42.60;;;;;;6115547;29;20036;-82
2021/05/02 12:29:34;;;;;;;8.10;4.70;;;19.10;42.30;;;;;;6118280;29;20039;-80
2021/05/02 12:32:35;;;;;;;6.32;4.32;;;18.80;42.40;;;;;;6115603;29;20362;-81
2021/05/02 12:35:36;;;;;;;5.53;3.55;;;18.50;43.00;;;;;;6131143;29;20407;-81
2021/05/02 12:38:39;;;;;;;5.03;3.70;;;18.20;43.20;;;;;;6099132;29;20034;-81
2021/05/02 12:41:42;;;;;;;9.02;4.32;;;17.90;43.70;;;;;;6115128;29;20043;-80
2021/05/02 12:44:53;;;;;;;9.48;4.25;;;17.70;43.80;;;;;;6114547;29;20040;-80
2021/05/02 12:47:54;;;;;;;5.82;4.03;;;17.50;44.00;;;;;;6115179;29;20039;-81
2021/05/02 12:50:58;;;;;;;9.38;4.18;;;17.30;44.30;;;;;;6114565;29;20042;-81
2021/05/02 12:54:08;;;;;;;8.93;3.97;;;17.30;44.30;;;;;;6130663;29;20444;-82
2021/05/02 12:57:14;;;;;;;5.63;3.70;;;17.40;44.10;;;;;;6131767;29;20020;-81
2021/05/02 13:00:18;;;;;;;8.63;4.35;;;17.50;43.40;;;;;;6129928;29;20138;-81
2021/05/02 13:06:45;;;;;;;5.35;3.35;;;17.80;43.10;;;;;;6114987;29;20115;-82
2021/05/02 13:09:46;;;;;;;7.05;4.03;;;17.80;42.40;;;;;;6076061;29;20543;-81
2021/05/02 13:12:58;;;;;;;7.43;3.97;;;17.90;41.90;;;;;;6115565;29;20028;-80
2021/05/02 13:16:01;;;;;;;4.75;3.03;;;17.90;41.50;;;;;;6115898;29;20498;-82
2021/05/02 13:19:02;;;;;;;7.22;3.50;;;18.00;41.20;;;;;;6114962;29;20359;-80
2021/05/02 13:22:18;;;;;;;4.13;2.90;;;18.10;41.30;;;;;;6131484;29;20059;-79
2021/05/02 13:25:24;;;;;;;6.82;3.40;;;18.20;41.30;;;;;;6130258;29;20082;-80
2021/05/02 13:28:26;;;;;;;6.28;2.75;;;18.30;40.60;;;;;;6130471;29;20031;-82
2021/05/02 13:31:38;;;;;;;7.00;3.42;;;18.40;40.60;;;;;;6101841;29;20447;-81
2021/05/02 13:34:43;;;;;;;5.35;2.47;;;18.50;40.50;;;;;;6130229;29;20036;-82
2021/05/02 13:37:45;;;;;;;5.35;2.90;;;18.70;40.00;;;;;;6113744;29;20063;-80
2021/05/02 13:40:47;;;;;;;4.45;2.35;;;19.00;39.50;;;;;;6113854;29;20031;-80
2021/05/02 13:43:48;;;;;;;4.03;2.80;;;19.20;38.40;;;;;;6113863;29;20463;-81
2021/05/02 13:46:52;;;;;;;4.85;2.90;;;19.40;37.60;;;;;;6129726;29;20032;-81
2021/05/02 13:49:54;;;;;;;4.60;3.08;;;19.70;37.40;;;;;;6113900;29;20039;-80
2021/05/02 13:52:56;;;;;;;3.13;2.55;;;19.90;37.40;;;;;;6130276;29;20140;-81
2021/05/02 13:55:57;;;;;;;4.55;2.72;;;20.40;36.20;;;;;;6114129;29;20378;-81
2021/05/02 13:58:58;;;;;;;5.00;2.78;;;21.00;35.10;;;;;;6113720;29;20024;-81
2021/05/02 14:01:59;;;;;;;5.80;2.55;;;21.60;33.80;;;;;;6129343;29;20110;-82
2021/05/02 14:05:00;;;;;;;6.28;2.67;;;22.40;33.00;;;;;;6110065;29;20122;-81
2021/05/02 14:08:01;;;;;;;5.95;2.63;;;24.10;31.00;;;;;;6118416;29;20031;-81
2021/05/02 14:11:05;;;;;;;4.10;2.80;;;25.40;29.40;;;;;;6106112;29;20478;-83
2021/05/02 14:14:10;;;;;;;5.47;2.67;;;25.80;27.80;;;;;;6118632;29;20059;-81
2021/05/02 14:17:13;;;;;;;3.63;2.40;;;25.10;27.80;;;;;;6132044;29;20043;-81
2021/05/02 14:20:15;;;;;;;3.40;2.20;;;24.30;28.50;;;;;;6114078;29;20510;-81
2021/05/02 14:23:18;;;;;;;3.65;2.65;;;24.00;29.30;;;;;;6130637;29;20150;-81
2021/05/02 14:26:21;;;;;;;3.65;2.42;;;25.20;28.10;;;;;;6108077;29;20036;-81
2021/05/02 14:29:23;;;;;;;3.28;2.58;;;26.60;26.50;;;;;;6128538;29;20036;-81
2021/05/02 14:32:26;;;;;;;4.18;2.40;;;27.00;25.50;;;;;;6113328;29;20040;-81
2021/05/02 14:35:28;;;;;;;4.38;2.10;;;26.20;26.10;;;;;;6113847;29;20491;-81
2021/05/02 14:38:30;;;;;;;5.82;2.58;;;25.10;27.00;;;;;;6098433;29;20530;-80
2021/05/02 14:41:32;;;;;;;2.65;2.20;;;24.00;27.90;;;;;;6113946;29;20086;-81
2021/05/02 14:44:34;;;;;;;4.22;1.85;;;23.20;29.20;;;;;;6128299;29;20354;-81
2021/05/02 14:47:35;;;;;;;3.58;2.20;;;22.90;29.90;;;;;;6113287;29;20133;-81
2021/05/02 14:50:36;;;;;;;3.45;2.22;;;22.80;29.80;;;;;;6112987;29;20063;-81
2021/05/02 14:53:38;;;;;;;3.88;2.58;;;22.70;30.00;;;;;;6131577;29;20043;-81
2021/05/02 14:56:40;;;;;;;5.90;2.55;;;22.50;30.20;;;;;;6117279;29;20459;-81
2021/05/02 14:59:41;;;;;;;4.10;2.53;;;22.20;30.80;;;;;;6117731;29;20058;-81
2021/05/02 15:02:43;;;;;;;3.80;2.30;;;21.60;30.80;;;;;;6101562;29;20063;-81
2021/05/02 15:05:47;;;;;;;2.80;2.25;;;21.00;31.40;;;;;;6132648;29;20168;-81
2021/05/02 15:08:49;;;;;;;3.42;2.60;;;20.50;33.20;;;;;;6117037;29;20031;-82
2021/05/02 15:11:51;;;;;;;3.13;2.47;;;20.00;34.70;;;;;;6133714;29;20466;-81
2021/05/02 15:14:52;;;;;;;3.75;2.42;;;19.50;35.80;;;;;;6118043;29;20106;-81
2021/05/02 15:17:53;;;;;;;5.05;2.50;;;18.80;38.30;;;;;;6126543;29;20505;-81
2021/05/02 15:20:54;;;;;;;5.05;2.67;;;18.30;40.20;;;;;;6132304;29;20027;-82
2021/05/02 15:23:55;;;;;;;4.60;2.90;;;17.90;41.20;;;;;;6133643;29;20042;-81
2021/05/02 15:26:57;;;;;;;4.40;2.78;;;17.50;42.50;;;;;;6117585;29;20042;-81
2021/05/02 15:29:59;;;;;;;4.95;3.25;;;17.20;43.70;;;;;;6137050;29;20032;-80
2021/05/02 15:33:00;;;;;;;7.65;2.55;;;16.90;44.60;;;;;;6141646;29;20044;-80
2021/05/02 15:36:04;;;;;;;4.50;3.08;;;16.70;45.50;;;;;;6132047;29;20062;-81
2021/05/02 15:39:07;;;;;;;6.70;2.92;;;16.50;45.60;;;;;;6143014;29;20447;-81
2021/05/02 15:42:08;;;;;;;5.22;3.33;;;16.30;45.70;;;;;;6117376;29;20031;-81
2021/05/02 15:45:10;;;;;;;6.18;3.35;;;16.20;46.10;;;;;;6120938;29;20163;-81
2021/05/02 15:48:11;;;;;;;6.63;2.53;;;16.30;46.20;;;;;;6127811;29;20031;-81
2021/05/02 15:51:13;;;;;;;4.20;3.03;;;16.30;46.20;;;;;;6134591;29;20028;-81
2021/05/02 15:54:14;;;;;;;4.53;3.00;;;16.30;45.90;;;;;;6118417;29;20130;-81
2021/05/02 15:57:16;;;;;;;5.63;2.90;;;16.30;45.70;;;;;;6116321;29;20035;-80
2021/05/02 16:00:18;;;;;;;5.57;2.97;;;16.30;45.80;;;;;;6132458;29;20074;-81
2021/05/02 16:03:19;;;;;;;5.68;2.70;;;16.30;46.10;;;;;;6132621;29;20607;-80